Terminal Aerodrome Forecast
Issued by NWS St Louis, MO

Home | Current Version | Previous Version | Text Only | Print | Product List | Glossary On
Versions: 1 2 3 4 5 6 7 8 9 10 11 12 13 14 15 16 17 18 19 20 21 22 23 24 25 26
932
FTUS43 KLSX 252027 AAB
TAFSTL
TAF AMD
KSTL 252027Z 2520/2624 25010G20KT P6SM VCTS SCT050CB BKN120
      TEMPO 2520/2522 3SM SHRA BKN035
     FM260000 28010KT 6SM -SHRA VCTS BKN050CB
     FM260500 31009KT P6SM VCSH BKN040
     FM261200 29007KT P6SM SCT040 BKN120
     FM261600 30011KT P6SM SKC=

USA.gov is the U.S. government's official web portal to all federal, state and local government web resources and services.